Terminal Aerodrome Forecast
Issued by NWS

Current Version | Previous Version | Text Only | Print | Product List | Glossary Off
Versions: 1 2 3 4 5 6 7 8 9 10 11 12 13 14 15 16 17 18 19 20 21 22 23 24 25 26

000
FTUS41 KRLX 260200 AAA
TAFCKB
TAF AMD
KCKB 260241Z 2603/2624 VRB03KT P6SM FEW060 SCT200
     FM260800 VRB03KT 5SM -RASN BR OVC060
     FM261000 VRB03KT 1SM -SN BR SCT025 OVC040
     FM261300 VRB04KT 1SM -SN OVC025
     FM261500 VRB04KT 1SM -SN BR OVC015
     FM261700 VRB04KT 1SM -SN BKN008 OVC015
     FM262100 VRB04KT 3SM BR BKN015=

USA.gov is the U.S. government's official web portal to all federal, state and local government web resources and services.